Time;durP1;ratioP1;P1;durP2;ratioP2;P2;SDS_P1;SDS_P2;PMS_P1;PMS_P2;Temp;Humidity;BMP_temperature;BMP_pressure;BME280_temperature;BME280_humidity;BME280_pressure;Samples;Min_cycle;Max_cycle;Signal;HPM_P1;HPM_P2
2022/03/16 00:02:55;;;;;;;14.00;6.70;;;23.60;59.10;;;;;;218920;1275;22602;-54
2022/03/16 00:08:32;;;;;;;22.90;7.60;;;23.50;58.90;;;;;;218963;1273;25220;-52
2022/03/16 00:14:16;;;;;;;13.10;6.20;;;23.50;59.20;;;;;;218772;1274;25575;-54
2022/03/16 00:19:53;;;;;;;16.60;7.40;;;23.50;58.00;;;;;;218938;1273;24337;-54
2022/03/16 00:25:30;;;;;;;17.50;7.50;;;23.50;57.40;;;;;;218971;1273;22548;-54
2022/03/16 00:31:10;;;;;;;15.20;6.50;;;23.40;56.90;;;;;;218882;1273;24235;-56
2022/03/16 00:36:49;;;;;;;9.90;5.80;;;23.40;57.50;;;;;;219869;1273;22547;-55
2022/03/16 00:42:29;;;;;;;12.30;6.10;;;23.30;56.70;;;;;;220306;1273;25357;-55
2022/03/16 00:48:06;;;;;;;10.40;6.10;;;23.30;57.50;;;;;;218929;1273;22655;-53
2022/03/16 00:53:45;;;;;;;18.30;7.40;;;23.30;56.80;;;;;;218945;1273;24262;-56
2022/03/16 00:59:22;;;;;;;13.80;7.30;;;23.30;57.10;;;;;;219762;1273;22548;-54
2022/03/16 01:04:59;;;;;;;14.80;8.10;;;23.30;56.70;;;;;;218943;1273;22589;-54
2022/03/16 01:10:37;;;;;;;15.00;7.10;;;23.20;57.50;;;;;;219133;1273;24333;-54
2022/03/16 01:16:14;;;;;;;17.90;8.00;;;23.20;58.00;;;;;;218972;1273;22541;-54
2022/03/16 01:21:52;;;;;;;14.30;7.50;;;23.30;57.20;;;;;;218936;1273;25262;-53
2022/03/16 01:27:30;;;;;;;20.60;8.20;;;23.40;56.10;;;;;;218928;1273;25322;-52
2022/03/16 01:33:09;;;;;;;14.90;7.10;;;23.50;56.00;;;;;;219201;1273;26716;-55
2022/03/16 01:38:47;;;;;;;15.20;6.10;;;23.50;55.30;;;;;;220454;1273;22539;-55
2022/03/16 01:44:24;;;;;;;18.60;7.10;;;23.40;54.70;;;;;;218987;1273;24167;-53
2022/03/16 01:50:02;;;;;;;20.20;6.80;;;23.30;54.60;;;;;;219091;1273;22583;-54
2022/03/16 01:55:49;;;;;;;18.10;7.30;;;23.20;54.70;;;;;;219913;1273;22410;-53
2022/03/16 02:01:36;;;;;;;12.40;6.40;;;23.10;54.70;;;;;;219092;1273;25565;-55
2022/03/16 02:07:07;;;;;;;10.20;5.60;;;23.10;54.60;;;;;;219206;1272;24384;-53
2022/03/16 02:12:18;;;;;;;11.00;6.30;;;23.00;55.20;;;;;;219740;1273;22551;-54
2022/03/16 02:17:23;;;;;;;18.30;6.60;;;23.00;54.20;;;;;;221625;1273;22785;-52
2022/03/16 02:22:30;;;;;;;19.90;7.40;;;23.00;54.60;;;;;;219268;1273;22605;-54
2022/03/16 02:27:34;;;;;;;42.50;8.80;;;23.00;55.00;;;;;;219181;1273;22564;-55
2022/03/16 02:32:37;;;;;;;30.20;8.80;;;22.90;54.50;;;;;;223293;1273;23361;-54
2022/03/16 02:37:41;;;;;;;20.90;8.00;;;22.90;54.10;;;;;;219173;1273;23813;-55
2022/03/16 02:42:45;;;;;;;15.60;6.90;;;23.00;54.00;;;;;;219634;1273;22358;-55
2022/03/16 02:47:48;;;;;;;16.70;6.80;;;22.90;54.10;;;;;;220386;1273;24319;-56
2022/03/16 02:52:52;;;;;;;12.20;6.30;;;22.90;54.00;;;;;;222524;1273;22531;-56
2022/03/16 02:58:17;;;;;;;10.30;5.70;;;22.90;53.90;;;;;;221353;1273;22562;-52
2022/03/16 03:03:22;;;;;;;12.70;6.40;;;22.90;53.90;;;;;;219835;1273;22544;-53
2022/03/16 03:08:25;;;;;;;10.10;5.70;;;22.80;53.70;;;;;;219040;1272;22540;-55
2022/03/16 03:13:29;;;;;;;15.20;6.70;;;22.80;53.40;;;;;;219231;1273;22581;-55
2022/03/16 03:18:35;;;;;;;12.80;6.40;;;22.80;53.40;;;;;;219865;1273;24610;-55
2022/03/16 03:23:38;;;;;;;13.40;6.30;;;22.70;53.50;;;;;;219887;1273;23466;-55
2022/03/16 03:28:42;;;;;;;7.60;5.00;;;22.70;53.50;;;;;;218961;1272;22625;-52
2022/03/16 03:33:46;;;;;;;10.70;5.60;;;22.60;53.40;;;;;;219062;1273;24697;-52
2022/03/16 03:38:49;;;;;;;12.30;6.20;;;22.70;53.50;;;;;;219120;1273;24357;-54
2022/03/16 03:43:56;;;;;;;9.00;5.20;;;22.70;53.30;;;;;;219086;1273;22555;-53
2022/03/16 03:49:01;;;;;;;8.70;4.80;;;22.70;53.20;;;;;;219274;1273;22546;-52
2022/03/16 03:54:04;;;;;;;8.90;5.10;;;22.60;53.40;;;;;;219016;1273;24415;-54
2022/03/16 03:59:08;;;;;;;8.50;5.10;;;22.50;52.90;;;;;;220105;1273;22547;-54
2022/03/16 04:04:12;;;;;;;9.20;5.50;;;22.60;53.20;;;;;;222106;1274;22584;-53
2022/03/16 04:09:16;;;;;;;8.80;5.00;;;22.50;53.30;;;;;;219441;1272;25251;-53
2022/03/16 04:14:20;;;;;;;9.20;5.30;;;22.50;52.80;;;;;;219794;1273;23055;-53
2022/03/16 04:19:23;;;;;;;14.90;6.10;;;22.50;53.00;;;;;;219046;1273;24334;-53
2022/03/16 04:24:27;;;;;;;11.60;5.90;;;22.50;53.10;;;;;;219374;1275;25179;-52
2022/03/16 04:29:31;;;;;;;8.80;5.40;;;22.40;52.90;;;;;;219464;1273;23008;-52
2022/03/16 04:34:37;;;;;;;12.10;5.90;;;22.40;53.00;;;;;;221799;1272;26492;-52
2022/03/16 04:39:41;;;;;;;12.20;6.20;;;22.40;53.50;;;;;;223227;1273;22631;-55
2022/03/16 04:44:49;;;;;;;17.70;6.20;;;22.40;52.90;;;;;;215704;1273;4384347;-55
2022/03/16 04:49:56;;;;;;;10.40;5.00;;;22.40;53.00;;;;;;220997;1272;23545;-51
2022/03/16 04:55:03;;;;;;;11.40;5.50;;;22.30;53.40;;;;;;219050;1273;22643;-52
2022/03/16 05:00:08;;;;;;;9.10;5.00;;;22.40;54.80;;;;;;218869;1275;25710;-53
2022/03/16 05:05:12;;;;;;;16.20;6.20;;;22.60;54.80;;;;;;220173;1273;22525;-52
2022/03/16 05:10:16;;;;;;;14.10;6.30;;;22.70;54.10;;;;;;218981;1273;22755;-54
2022/03/16 05:15:20;;;;;;;22.90;6.20;;;22.90;53.70;;;;;;219565;1273;22669;-53
2022/03/16 05:20:24;;;;;;;17.60;5.90;;;22.90;53.50;;;;;;222425;1273;24345;-53
2022/03/16 05:25:32;;;;;;;31.10;8.50;;;23.00;52.80;;;;;;218978;1277;22531;-54
2022/03/16 05:30:35;;;;;;;21.00;6.90;;;23.00;52.30;;;;;;219262;1273;24388;-51
2022/03/16 05:35:40;;;;;;;10.30;5.60;;;23.10;51.90;;;;;;219093;1276;24268;-55
2022/03/16 05:40:44;;;;;;;11.30;5.20;;;23.20;51.60;;;;;;219151;1273;24397;-54
2022/03/16 05:45:49;;;;;;;9.20;4.80;;;23.20;51.60;;;;;;222658;1272;24337;-55
2022/03/16 05:50:53;;;;;;;12.10;4.90;;;23.30;51.40;;;;;;219333;1276;22576;-55
2022/03/16 05:55:56;;;;;;;8.00;4.50;;;23.30;50.90;;;;;;220987;1273;24241;-54
2022/03/16 06:01:00;;;;;;;9.50;4.90;;;23.30;50.70;;;;;;222206;1274;25134;-55
2022/03/16 06:06:05;;;;;;;7.60;4.70;;;23.30;50.50;;;;;;219027;1275;24686;-53
2022/03/16 06:11:08;;;;;;;10.50;4.90;;;23.30;50.30;;;;;;219882;1273;22823;-53
2022/03/16 06:16:14;;;;;;;13.10;5.80;;;23.30;50.50;;;;;;218961;1273;22550;-54
2022/03/16 06:21:18;;;;;;;19.70;6.00;;;23.40;50.10;;;;;;223527;1273;24323;-54
2022/03/16 06:26:21;;;;;;;14.20;5.60;;;23.40;50.00;;;;;;218943;1276;22571;-55
2022/03/16 06:31:29;;;;;;;9.70;5.90;;;23.40;49.90;;;;;;219189;1273;24805;-55
2022/03/16 06:36:35;;;;;;;10.60;5.20;;;23.40;50.00;;;;;;222054;1272;25526;-55
2022/03/16 06:41:38;;;;;;;17.50;5.40;;;23.40;50.40;;;;;;223504;1273;25411;-56
2022/03/16 06:46:43;;;;;;;10.70;5.00;;;23.50;50.60;;;;;;220008;1273;24253;-55
2022/03/16 06:51:46;;;;;;;9.90;5.00;;;23.50;50.50;;;;;;219006;1273;22600;-55
2022/03/16 06:56:50;;;;;;;13.30;5.30;;;23.50;50.60;;;;;;219133;1274;24224;-55
2022/03/16 07:01:53;;;;;;;13.80;5.40;;;23.50;51.20;;;;;;219110;1273;24607;-53
2022/03/16 07:06:57;;;;;;;14.20;5.50;;;23.50;50.90;;;;;;219521;1273;22613;-53
2022/03/16 07:12:01;;;;;;;20.10;6.40;;;23.60;50.90;;;;;;219062;1273;22616;-50
2022/03/16 07:17:04;;;;;;;10.40;4.70;;;23.60;50.70;;;;;;220764;1275;23783;-54
2022/03/16 07:22:08;;;;;;;13.00;5.70;;;23.60;51.00;;;;;;220045;1273;25333;-55
2022/03/16 07:27:14;;;;;;;16.10;6.10;;;23.60;51.30;;;;;;219645;1273;22525;-54
2022/03/16 07:32:18;;;;;;;12.40;5.30;;;23.60;51.00;;;;;;218770;1274;22563;-54
2022/03/16 07:37:23;;;;;;;19.60;6.20;;;23.50;51.00;;;;;;218760;1273;22697;-54
2022/03/16 07:42:26;;;;;;;17.70;6.60;;;23.50;51.10;;;;;;219311;1273;24246;-54
2022/03/16 07:47:30;;;;;;;19.70;6.50;;;23.50;51.10;;;;;;219209;1273;22556;-54
2022/03/16 07:52:43;;;;;;;16.90;6.70;;;23.60;51.10;;;;;;221014;1274;22822;-55
2022/03/16 07:57:54;;;;;;;13.30;6.00;;;23.60;51.00;;;;;;221756;1272;22677;-55
2022/03/16 08:03:01;;;;;;;21.70;7.50;;;23.50;51.40;;;;;;223285;1273;24110;-53
2022/03/16 08:08:06;;;;;;;22.90;6.80;;;23.50;51.20;;;;;;219683;1273;24316;-53
2022/03/16 08:13:10;;;;;;;18.80;6.00;;;23.50;51.20;;;;;;218954;1273;24303;-54
2022/03/16 08:18:14;;;;;;;15.40;7.60;;;23.50;50.90;;;;;;223110;1274;22540;-52
2022/03/16 08:23:18;;;;;;;14.20;6.50;;;23.50;50.70;;;;;;218942;1273;23526;-54
2022/03/16 08:28:29;;;;;;;16.80;7.10;;;23.40;50.50;;;;;;218924;1273;26467;-52
2022/03/16 08:33:33;;;;;;;15.60;7.30;;;23.40;50.50;;;;;;221078;1273;23919;-54
2022/03/16 08:38:38;;;;;;;17.50;7.80;;;23.30;50.60;;;;;;218640;1273;25584;-54
2022/03/16 08:43:42;;;;;;;13.50;7.20;;;23.30;50.50;;;;;;221559;1273;23169;-53
2022/03/16 08:48:48;;;;;;;17.50;8.60;;;23.30;50.10;;;;;;218650;1276;23054;-55
2022/03/16 08:53:52;;;;;;;17.90;7.50;;;23.30;50.10;;;;;;221121;1275;25354;-53
2022/03/16 08:58:55;;;;;;;14.00;7.40;;;23.30;50.20;;;;;;218547;1273;25271;-53
2022/03/16 09:03:59;;;;;;;22.60;8.40;;;23.20;50.50;;;;;;218591;1273;24315;-52
2022/03/16 09:09:03;;;;;;;16.40;7.70;;;23.20;49.70;;;;;;218637;1276;24227;-53
2022/03/16 09:14:06;;;;;;;21.10;8.50;;;23.20;49.70;;;;;;219350;1273;23442;-55
2022/03/16 09:19:10;;;;;;;19.90;8.20;;;23.20;49.50;;;;;;220443;1273;22639;-53
2022/03/16 09:24:15;;;;;;;14.90;7.90;;;23.20;49.70;;;;;;220503;1273;24341;-52
2022/03/16 09:29:22;;;;;;;16.60;7.60;;;23.20;49.30;;;;;;223002;1272;23479;-55
2022/03/16 09:34:26;;;;;;;17.40;8.30;;;23.20;49.10;;;;;;219542;1274;24257;-54
2022/03/16 09:39:32;;;;;;;13.00;7.50;;;23.10;48.70;;;;;;222006;1272;26537;-53
2022/03/16 09:44:38;;;;;;;18.60;8.40;;;23.10;49.40;;;;;;218763;1273;25433;-52
2022/03/16 09:49:43;;;;;;;15.50;8.60;;;23.00;52.20;;;;;;221436;1273;22536;-52
2022/03/16 09:54:48;;;;;;;26.70;10.00;;;23.10;52.80;;;;;;219003;1273;22771;-51
2022/03/16 09:59:55;;;;;;;17.30;8.80;;;23.10;53.50;;;;;;218581;1273;25425;-52
2022/03/16 10:05:10;;;;;;;14.00;7.80;;;23.10;53.80;;;;;;220543;1273;24393;-53
2022/03/16 10:15:56;;;;;;;21.20;9.30;;;23.20;53.50;;;;;;219080;1277;22736;-51
2022/03/16 10:21:04;;;;;;;14.30;8.20;;;23.20;53.90;;;;;;219316;1275;24249;-53
2022/03/16 10:26:07;;;;;;;19.50;9.10;;;23.20;53.40;;;;;;218811;1274;22535;-54
2022/03/16 10:31:19;;;;;;;16.20;8.20;;;23.20;53.20;;;;;;222267;1273;22654;-54
2022/03/16 10:36:28;;;;;;;20.30;9.00;;;23.30;52.70;;;;;;218807;1274;22548;-54
2022/03/16 10:47:02;;;;;;;26.40;9.60;;;23.40;52.10;;;;;;218764;1273;22657;-53
2022/03/16 10:52:17;;;;;;;16.80;8.50;;;23.40;52.00;;;;;;222064;1277;26158;-53
2022/03/16 10:57:25;;;;;;;13.40;7.50;;;23.50;51.40;;;;;;218617;1274;24428;-54
2022/03/16 11:02:34;;;;;;;12.90;7.70;;;23.50;51.30;;;;;;219117;1273;25072;-52
2022/03/16 11:07:39;;;;;;;12.40;7.90;;;23.40;51.50;;;;;;221010;1274;24452;-51
2022/03/16 11:18:11;;;;;;;17.50;8.60;;;23.50;50.80;;;;;;219689;1273;24303;-55
2022/03/16 11:29:34;;;;;;;10.80;6.60;;;23.60;50.20;;;;;;221604;1275;22576;-53
2022/03/16 11:34:40;;;;;;;11.20;7.10;;;23.60;50.00;;;;;;219101;1274;24451;-53
2022/03/16 11:39:46;;;;;;;12.20;7.00;;;23.60;50.00;;;;;;219797;1274;22576;-54
2022/03/16 11:45:29;;;;;;;12.30;7.40;;;23.60;50.00;;;;;;223767;1273;22560;-51
2022/03/16 11:50:34;;;;;;;18.30;8.10;;;23.60;49.60;;;;;;218842;1274;25462;-51
2022/03/16 11:55:48;;;;;;;14.70;7.50;;;23.50;49.70;;;;;;222692;1274;22693;-51
2022/03/16 12:01:28;;;;;;;16.80;8.30;;;23.50;49.40;;;;;;221042;1275;22614;-53
2022/03/16 12:06:51;;;;;;;11.60;7.00;;;23.50;49.40;;;;;;219291;1274;25355;-52
2022/03/16 12:18:02;;;;;;;43.60;10.60;;;23.50;49.00;;;;;;218863;1274;25681;-54
2022/03/16 12:23:10;;;;;;;18.20;7.80;;;23.50;49.20;;;;;;218816;1274;22648;-53
2022/03/16 12:33:59;;;;;;;17.90;8.30;;;23.50;48.90;;;;;;220230;1274;24341;-54
2022/03/16 12:39:13;;;;;;;19.20;8.10;;;23.40;48.60;;;;;;219188;1273;25648;-54
2022/03/16 12:44:22;;;;;;;22.20;9.20;;;23.40;48.70;;;;;;220602;1273;22550;-53
2022/03/16 12:49:28;;;;;;;17.90;8.30;;;23.40;48.30;;;;;;219550;1273;22538;-52
2022/03/16 12:54:34;;;;;;;15.30;7.80;;;23.40;48.50;;;;;;222271;1272;22553;-54
2022/03/16 12:59:45;;;;;;;10.10;7.90;;;23.30;48.10;;;;;;220089;1274;24270;-53
2022/03/16 13:04:54;;;;;;;12.90;8.00;;;23.30;47.90;;;;;;223009;1273;24239;-52
2022/03/16 13:10:00;;;;;;;11.50;7.50;;;23.30;47.80;;;;;;220477;1273;25535;-55
2022/03/16 13:15:08;;;;;;;11.70;7.80;;;23.30;48.20;;;;;;222430;1273;23978;-54
2022/03/16 13:20:23;;;;;;;17.30;8.80;;;23.30;47.90;;;;;;219596;1275;22579;-51
2022/03/16 13:25:27;;;;;;;21.70;12.30;;;23.20;47.70;;;;;;222721;1273;25290;-52
2022/03/16 13:30:31;;;;;;;20.50;11.90;;;23.20;47.00;;;;;;219520;1273;25460;-53
2022/03/16 13:35:35;;;;;;;26.20;11.80;;;23.20;46.60;;;;;;219124;1273;22611;-55
2022/03/16 13:40:42;;;;;;;26.20;13.10;;;23.10;46.40;;;;;;219801;1273;25625;-54
2022/03/16 13:45:48;;;;;;;22.40;13.30;;;23.10;46.00;;;;;;220462;1273;24412;-52
2022/03/16 13:50:57;;;;;;;19.30;12.00;;;23.10;46.20;;;;;;218873;1273;25491;-53
2022/03/16 13:56:19;;;;;;;30.50;13.00;;;23.10;46.30;;;;;;218991;1273;22563;-52
2022/03/16 14:01:31;;;;;;;20.40;11.90;;;23.10;46.10;;;;;;220845;1274;22576;-51
2022/03/16 14:06:42;;;;;;;23.70;11.80;;;23.00;46.70;;;;;;220900;1273;22649;-53
2022/03/16 14:11:51;;;;;;;18.00;11.50;;;23.10;47.10;;;;;;223885;1273;24148;-52
2022/03/16 14:16:56;;;;;;;25.00;12.70;;;23.10;46.80;;;;;;218689;1273;25726;-53
2022/03/16 14:22:00;;;;;;;16.70;10.90;;;23.10;46.80;;;;;;219151;1273;23718;-51
2022/03/16 14:27:18;;;;;;;19.10;10.80;;;23.10;46.90;;;;;;219665;1275;22539;-52
2022/03/16 14:32:22;;;;;;;19.80;10.30;;;23.00;46.80;;;;;;219038;1273;22574;-53
2022/03/16 14:37:30;;;;;;;35.00;12.60;;;23.00;47.20;;;;;;219345;1273;24215;-52
2022/03/16 14:42:35;;;;;;;24.90;11.60;;;23.00;46.80;;;;;;225042;1273;22549;-53
2022/03/16 14:47:39;;;;;;;19.70;10.10;;;23.00;46.80;;;;;;218713;1273;22572;-53
2022/03/16 14:52:45;;;;;;;44.20;14.00;;;23.00;47.10;;;;;;222512;1273;23311;-52
2022/03/16 14:57:54;;;;;;;20.40;11.30;;;23.00;46.80;;;;;;219117;1273;24396;-54
2022/03/16 15:02:57;;;;;;;16.50;11.30;;;23.00;46.60;;;;;;219714;1273;25359;-53
2022/03/16 15:08:02;;;;;;;23.50;11.50;;;22.90;46.70;;;;;;219324;1273;25477;-51
2022/03/16 15:13:11;;;;;;;15.50;9.60;;;22.90;46.70;;;;;;222873;1272;24300;-52
2022/03/16 15:18:21;;;;;;;20.20;11.00;;;22.90;46.40;;;;;;219938;1272;22540;-53
2022/03/16 15:23:24;;;;;;;17.20;10.00;;;22.90;46.40;;;;;;220057;1273;22553;-51
2022/03/16 15:28:28;;;;;;;15.20;9.90;;;22.90;46.30;;;;;;218788;1273;22566;-52
2022/03/16 15:33:35;;;;;;;14.70;10.20;;;22.90;46.40;;;;;;218610;1274;22625;-50
2022/03/16 15:38:43;;;;;;;15.50;9.30;;;22.80;46.20;;;;;;218706;1273;25488;-54
2022/03/16 15:43:46;;;;;;;15.30;9.90;;;22.80;46.60;;;;;;221446;1273;22756;-53
2022/03/16 15:48:52;;;;;;;17.40;10.70;;;22.80;46.30;;;;;;218934;1272;25370;-53
2022/03/16 15:54:01;;;;;;;13.00;9.20;;;22.70;46.30;;;;;;218718;1273;22565;-50
2022/03/16 15:59:04;;;;;;;11.90;9.10;;;22.70;46.20;;;;;;219012;1273;25399;-54
2022/03/16 16:04:08;;;;;;;13.10;9.80;;;22.70;46.60;;;;;;218915;1273;22612;-50
2022/03/16 16:09:23;;;;;;;16.80;10.10;;;22.60;46.40;;;;;;219113;1273;22702;-51
2022/03/16 16:14:29;;;;;;;15.30;9.20;;;22.70;46.00;;;;;;220657;1273;22622;-51
2022/03/16 16:19:43;;;;;;;20.50;11.00;;;22.70;46.30;;;;;;218503;1274;24330;-53
2022/03/16 16:24:47;;;;;;;43.90;15.40;;;22.60;46.60;;;;;;218853;1272;22624;-52
2022/03/16 16:29:51;;;;;;;31.50;13.80;;;22.60;47.80;;;;;;219337;1273;25411;-51
2022/03/16 16:34:55;;;;;;;25.10;11.60;;;22.60;48.00;;;;;;218615;1273;22721;-51
2022/03/16 16:39:58;;;;;;;31.10;13.60;;;22.60;47.90;;;;;;221951;1273;25490;-53
2022/03/16 16:45:04;;;;;;;40.70;14.40;;;22.60;47.80;;;;;;218724;1273;315110;-51
2022/03/16 16:50:15;;;;;;;40.50;13.30;;;22.60;47.50;;;;;;219306;1272;25270;-51
2022/03/16 16:55:20;;;;;;;46.90;14.70;;;22.50;47.40;;;;;;220777;1273;23966;-52
2022/03/16 17:00:28;;;;;;;30.40;12.40;;;22.60;47.60;;;;;;219854;1274;22629;-53
2022/03/16 17:05:43;;;;;;;27.00;12.50;;;22.50;47.00;;;;;;219215;1273;22538;-52
2022/03/16 17:11:00;;;;;;;19.60;10.90;;;22.40;46.80;;;;;;222790;1273;22530;-52
2022/03/16 17:16:20;;;;;;;24.20;12.20;;;22.50;47.20;;;;;;219743;1273;22793;-53
2022/03/16 17:21:24;;;;;;;39.50;14.70;;;22.70;47.20;;;;;;218746;1273;22704;-53
2022/03/16 17:26:28;;;;;;;39.40;13.70;;;22.90;46.30;;;;;;221003;1273;22571;-50
2022/03/16 17:31:32;;;;;;;20.50;12.10;;;23.10;46.00;;;;;;218710;1273;25261;-50
2022/03/16 17:36:36;;;;;;;28.80;11.20;;;23.20;45.90;;;;;;223285;1273;25485;-50
2022/03/16 17:47:08;;;;;;;18.90;10.50;;;23.30;45.40;;;;;;222943;1272;22549;-50
2022/03/16 17:52:23;;;;;;;26.50;11.80;;;23.30;45.20;;;;;;219073;1273;22635;-51
2022/03/16 17:57:27;;;;;;;42.90;13.80;;;23.40;45.20;;;;;;219667;1273;22573;-49
2022/03/16 18:02:33;;;;;;;35.80;13.80;;;23.40;45.60;;;;;;218744;1273;22540;-50
2022/03/16 18:08:01;;;;;;;28.90;12.00;;;23.40;45.10;;;;;;218768;1273;24395;-52
2022/03/16 18:13:22;;;;;;;31.00;10.40;;;23.50;45.00;;;;;;220836;1272;22472;-52
2022/03/16 18:18:27;;;;;;;37.30;12.80;;;23.50;45.00;;;;;;218693;1273;22540;-51
2022/03/16 18:23:45;;;;;;;36.10;12.10;;;23.60;45.50;;;;;;218986;1273;22589;-50
2022/03/16 18:29:04;;;;;;;31.90;12.50;;;23.60;45.60;;;;;;221645;1273;25522;-54
2022/03/16 18:34:08;;;;;;;28.70;12.80;;;23.50;45.80;;;;;;220642;1273;22726;-54
2022/03/16 18:39:16;;;;;;;34.00;12.10;;;23.60;45.80;;;;;;218840;1273;25571;-53
2022/03/16 18:44:26;;;;;;;28.90;12.00;;;23.60;46.60;;;;;;219528;1272;22469;-55
2022/03/16 18:49:35;;;;;;;32.80;13.80;;;23.60;47.80;;;;;;219050;1273;24084;-53
2022/03/16 18:54:49;;;;;;;38.10;12.90;;;23.60;47.80;;;;;;218593;1274;22890;-54
2022/03/16 18:59:59;;;;;;;38.10;16.10;;;23.60;47.50;;;;;;222399;1273;26489;-54
2022/03/16 19:05:08;;;;;;;36.60;14.40;;;23.60;47.50;;;;;;221250;1273;22744;-55
2022/03/16 19:10:14;;;;;;;33.10;14.90;;;23.60;47.30;;;;;;218819;1273;22567;-55
2022/03/16 19:15:21;;;;;;;31.80;14.80;;;23.60;46.50;;;;;;221381;1273;24416;-51
2022/03/16 19:20:29;;;;;;;32.70;15.30;;;23.70;46.30;;;;;;219695;1273;26609;-54
2022/03/16 19:25:54;;;;;;;35.60;16.70;;;23.70;46.20;;;;;;220909;1273;22595;-55
2022/03/16 19:31:15;;;;;;;35.30;15.90;;;23.70;46.20;;;;;;220874;1273;22574;-55
2022/03/16 19:36:24;;;;;;;34.70;15.50;;;23.60;46.70;;;;;;222564;1273;24323;-55
2022/03/16 19:41:40;;;;;;;41.80;15.70;;;23.60;47.40;;;;;;218593;1273;23176;-54
2022/03/16 19:46:48;;;;;;;26.00;14.50;;;23.60;47.50;;;;;;222895;1272;22558;-49
2022/03/16 19:52:01;;;;;;;25.60;13.90;;;23.50;47.60;;;;;;219600;1273;24349;-50
2022/03/16 19:57:08;;;;;;;24.70;13.80;;;23.50;47.90;;;;;;222276;1273;25241;-54
2022/03/16 20:02:13;;;;;;;32.40;14.50;;;23.40;47.70;;;;;;219616;1273;24333;-53
2022/03/16 20:07:24;;;;;;;28.20;14.60;;;23.40;47.60;;;;;;220898;1273;23277;-51
2022/03/16 20:12:37;;;;;;;24.80;14.10;;;23.40;47.40;;;;;;219246;1273;25259;-51
2022/03/16 20:17:43;;;;;;;31.70;14.60;;;23.30;47.20;;;;;;219336;1273;25554;-51
2022/03/16 20:22:58;;;;;;;;;;;23.30;47.00;;;;;;220443;1273;24247;-50
2022/03/16 20:28:09;;;;;;;28.30;15.10;;;23.20;47.00;;;;;;219337;1273;24691;-52
2022/03/16 20:33:15;;;;;;;27.90;14.80;;;23.30;47.00;;;;;;222581;1273;22816;-53
2022/03/16 20:38:46;;;;;;;25.60;15.40;;;23.20;46.80;;;;;;219507;1273;22581;-54
2022/03/16 20:44:11;;;;;;;21.10;14.50;;;23.20;46.50;;;;;;221692;1273;22455;-54
2022/03/16 20:49:27;;;;;;;29.90;15.00;;;23.20;46.60;;;;;;219817;1273;25326;-52
2022/03/16 20:54:34;;;;;;;27.30;14.70;;;23.20;49.00;;;;;;219112;1273;22624;-50
2022/03/16 21:05:25;;;;;;;26.70;14.70;;;23.10;50.50;;;;;;219017;1274;22605;-50
2022/03/16 21:10:40;;;;;;;20.40;13.10;;;23.00;49.70;;;;;;220700;1273;22731;-51
2022/03/16 21:15:55;;;;;;;23.40;13.60;;;22.90;49.60;;;;;;219646;1273;26594;-52
2022/03/16 21:21:06;;;;;;;25.90;13.60;;;22.90;50.10;;;;;;221487;1273;26586;-54
2022/03/16 21:26:20;;;;;;;27.00;14.60;;;22.90;51.80;;;;;;219198;1273;22564;-55
2022/03/16 21:31:28;;;;;;;24.20;14.50;;;22.90;51.80;;;;;;219183;1276;22654;-50
2022/03/16 21:36:38;;;;;;;25.20;13.50;;;22.90;51.90;;;;;;220277;1273;24449;-51
2022/03/16 21:47:12;;;;;;;31.70;14.20;;;22.90;52.00;;;;;;220612;1274;22689;-53
2022/03/16 21:52:19;;;;;;;26.90;13.60;;;22.80;52.10;;;;;;219322;1273;24290;-51
2022/03/16 21:57:23;;;;;;;26.10;14.50;;;22.70;51.80;;;;;;219026;1273;22528;-54
2022/03/16 22:02:26;;;;;;;29.10;13.70;;;22.70;51.80;;;;;;219304;1273;24441;-52
2022/03/16 22:07:32;;;;;;;23.30;14.00;;;22.60;51.90;;;;;;221340;1273;22601;-52
2022/03/16 22:12:36;;;;;;;24.60;13.80;;;22.70;52.10;;;;;;221762;1274;22627;-51
2022/03/16 22:17:49;;;;;;;26.20;13.60;;;22.60;51.70;;;;;;219257;1273;24273;-50
2022/03/16 22:22:54;;;;;;;24.80;14.30;;;22.60;51.70;;;;;;220120;1273;22589;-51
2022/03/16 22:28:14;;;;;;;26.40;14.10;;;22.60;51.50;;;;;;220009;1273;23322;-52
2022/03/16 22:33:28;;;;;;;26.00;14.10;;;22.60;51.70;;;;;;219983;1273;25324;-54
2022/03/16 22:38:32;;;;;;;25.50;13.80;;;22.50;51.50;;;;;;218967;1272;22618;-55
2022/03/16 22:43:36;;;;;;;21.20;13.20;;;22.60;52.00;;;;;;219290;1273;22525;-54
2022/03/16 22:48:44;;;;;;;20.90;12.90;;;22.50;51.60;;;;;;220797;1273;22492;-51
2022/03/16 22:53:51;;;;;;;27.10;14.30;;;22.50;51.70;;;;;;221268;1273;25358;-52
2022/03/16 22:58:57;;;;;;;25.70;13.90;;;22.50;52.00;;;;;;219218;1273;23141;-54
2022/03/16 23:04:12;;;;;;;22.10;13.30;;;22.40;51.50;;;;;;219388;1273;25369;-54
2022/03/16 23:09:16;;;;;;;20.90;12.90;;;22.40;51.30;;;;;;221598;1273;23311;-54
2022/03/16 23:14:24;;;;;;;23.50;12.10;;;22.60;51.80;;;;;;219086;1273;22602;-53
2022/03/16 23:19:35;;;;;;;20.80;12.30;;;22.80;51.30;;;;;;219353;1273;24169;-54
2022/03/16 23:24:46;;;;;;;17.50;11.20;;;22.90;50.50;;;;;;219583;1275;22573;-51
2022/03/16 23:29:52;;;;;;;18.60;11.70;;;23.10;50.70;;;;;;221274;1273;25553;-54
2022/03/16 23:34:56;;;;;;;22.90;12.40;;;23.20;50.30;;;;;;221235;1273;24257;-53
2022/03/16 23:40:01;;;;;;;28.90;15.20;;;23.30;50.10;;;;;;219578;1273;22652;-53
2022/03/16 23:45:06;;;;;;;19.90;12.40;;;23.30;49.90;;;;;;222583;1273;25400;-53
2022/03/16 23:50:12;;;;;;;23.50;13.30;;;23.40;49.70;;;;;;219678;1273;22550;-55
2022/03/16 23:55:22;;;;;;;17.90;11.50;;;23.40;49.50;;;;;;224204;1272;25652;-53
